Lancaster, PA (17573)

8:36 AM EDT on July 23, 2016 (GMT -0400)
Lancaster pa | | Change Station

Elev 430 ft 40.00 °N, 76.24 °W | Updated 14 minutes ago

Clear
Clear
82.8 °F
Feels Like 88 °F
N
4.7
Wind Variable Wind from WSW

Today
High -- | Low -- °F
--% Chance of Precip.
Yesterday
High -- | Low -- °F
Precip. -- in
Pressure 29.92 in
Visibility 8.0 miles
Clouds Clear
Heat Index 88 °F
Dew Point 72 °F
Humidity 70%
Rainfall 0.00 in
Snow Depth Not available.
5:55 AM 8:26 PM
Waning Gibbous, 85% visible
METAR KLNS 231153Z 28004KT 8SM CLR 25/21 A2993 RMK AO2 SLP132 T02500211 10250 20211 51008
Pressure 29.92 in
Visibility 8.0 miles
Clouds Clear
Heat Index 88 °F
Dew Point 72 °F
Humidity 70%
Rainfall 0.00 in
Snow Depth Not available.
5:55 AM 8:26 PM
Waning Gibbous, 85% visible
METAR KLNS 231153Z 28004KT 8SM CLR 25/21 A2993 RMK AO2 SLP132 T02500211 10250 20211 51008

10-Day Weather Forecast

Almanac

Astronomy

Jul. 23, 2016 Rise Set
Actual Time
Civil Twilight
Nautical Twilight
Astronomical Twilight
Moon
Length of Visible Light
Length of Day
Tomorrow will be .
, % of the Moon is Illuminated

Today's Extremes

State Highs State Lows

Community

WunderPhotos

Upload Photos

1,926,815 photos uploaded!

WunderBlog® & News

Nearby

Air Quality

  Air Quality AQ Index Pollutant
Not available.

Snow Depth

Station Depth Elevation

Earthquake Activity

City Distance Mag. Time & Date
Minimum magnitude displayed is 2.5.

Coastal Water Temperatures

Place Temperature

Stations

Nearby Weather Stations

Station Location Temp. Windchill Dew Point Humidity Wind Precip. Elev Updated Type
                   

Watches & Warnings

There are currently no watches in effect.